sensor_id;sensor_type;location;lat;lon;timestamp;temperature;humidity
5711;DHT22;61291;52.524;13.422;2023-11-21T00:00:49;8.10;99.90
5711;DHT22;61291;52.524;13.422;2023-11-21T00:03:15;8.00;99.90
5711;DHT22;61291;52.524;13.422;2023-11-21T00:05:43;7.90;99.90
5711;DHT22;61291;52.524;13.422;2023-11-21T00:08:09;7.90;99.90
5711;DHT22;61291;52.524;13.422;2023-11-21T00:10:35;7.90;99.90
5711;DHT22;61291;52.524;13.422;2023-11-21T00:13:03;7.80;99.90
5711;DHT22;61291;52.524;13.422;2023-11-21T00:15:29;7.70;99.90
5711;DHT22;61291;52.524;13.422;2023-11-21T00:17:54;7.70;99.90
5711;DHT22;61291;52.524;13.422;2023-11-21T00:20:20;7.70;99.90
5711;DHT22;61291;52.524;13.422;2023-11-21T00:22:46;7.70;99.90
5711;DHT22;61291;52.524;13.422;2023-11-21T00:25:12;7.70;99.90
5711;DHT22;61291;52.524;13.422;2023-11-21T00:27:38;7.60;99.90
5711;DHT22;61291;52.524;13.422;2023-11-21T00:30:04;7.60;99.90
5711;DHT22;61291;52.524;13.422;2023-11-21T00:32:31;7.60;99.90
5711;DHT22;61291;52.524;13.422;2023-11-21T00:34:56;7.50;99.90
5711;DHT22;61291;52.524;13.422;2023-11-21T00:37:22;7.50;99.90
5711;DHT22;61291;52.524;13.422;2023-11-21T00:39:47;7.50;99.90
5711;DHT22;61291;52.524;13.422;2023-11-21T00:42:12;7.60;99.90
5711;DHT22;61291;52.524;13.422;2023-11-21T00:44:38;7.60;99.90
5711;DHT22;61291;52.524;13.422;2023-11-21T00:47:05;7.50;99.90
5711;DHT22;61291;52.524;13.422;2023-11-21T00:49:30;7.50;99.90
5711;DHT22;61291;52.524;13.422;2023-11-21T00:51:55;7.50;99.90
5711;DHT22;61291;52.524;13.422;2023-11-21T00:54:23;7.50;99.90
5711;DHT22;61291;52.524;13.422;2023-11-21T00:56:48;7.50;99.90
5711;DHT22;61291;52.524;13.422;2023-11-21T00:59:14;7.50;99.90
5711;DHT22;61291;52.524;13.422;2023-11-21T01:01:39;7.40;99.90
5711;DHT22;61291;52.524;13.422;2023-11-21T01:04:05;7.20;99.90
5711;DHT22;61291;52.524;13.422;2023-11-21T01:06:32;7.20;99.90
5711;DHT22;61291;52.524;13.422;2023-11-21T01:08:58;7.20;99.90
5711;DHT22;61291;52.524;13.422;2023-11-21T01:11:23;7.20;99.90
5711;DHT22;61291;52.524;13.422;2023-11-21T01:13:48;7.10;99.90
5711;DHT22;61291;52.524;13.422;2023-11-21T01:16:14;7.10;99.90
5711;DHT22;61291;52.524;13.422;2023-11-21T01:18:39;7.10;99.90
5711;DHT22;61291;52.524;13.422;2023-11-21T01:21:05;7.00;99.90
5711;DHT22;61291;52.524;13.422;2023-11-21T01:23:31;7.10;99.90
5711;DHT22;61291;52.524;13.422;2023-11-21T01:25:57;7.10;99.90
5711;DHT22;61291;52.524;13.422;2023-11-21T01:28:22;7.10;99.90
5711;DHT22;61291;52.524;13.422;2023-11-21T01:30:48;7.10;99.90
5711;DHT22;61291;52.524;13.422;2023-11-21T01:33:14;7.10;99.90
5711;DHT22;61291;52.524;13.422;2023-11-21T01:35:41;7.20;99.90
5711;DHT22;61291;52.524;13.422;2023-11-21T01:38:07;7.30;99.90
5711;DHT22;61291;52.524;13.422;2023-11-21T01:40:33;7.20;99.90
5711;DHT22;61291;52.524;13.422;2023-11-21T01:42:59;7.20;99.90
5711;DHT22;61291;52.524;13.422;2023-11-21T01:45:24;7.10;99.90
5711;DHT22;61291;52.524;13.422;2023-11-21T01:47:50;7.00;99.90
5711;DHT22;61291;52.524;13.422;2023-11-21T01:50:16;6.90;99.90
5711;DHT22;61291;52.524;13.422;2023-11-21T01:52:45;6.90;99.90
5711;DHT22;61291;52.524;13.422;2023-11-21T01:55:11;6.90;99.90
5711;DHT22;61291;52.524;13.422;2023-11-21T01:57:38;6.90;99.90
5711;DHT22;61291;52.524;13.422;2023-11-21T02:00:04;6.90;99.90
5711;DHT22;61291;52.524;13.422;2023-11-21T02:02:48;6.90;99.90
5711;DHT22;61291;52.524;13.422;2023-11-21T02:05:18;6.80;99.90
5711;DHT22;61291;52.524;13.422;2023-11-21T02:07:44;6.90;99.90
5711;DHT22;61291;52.524;13.422;2023-11-21T02:10:10;6.80;99.90
5711;DHT22;61291;52.524;13.422;2023-11-21T02:12:40;6.80;99.90
5711;DHT22;61291;52.524;13.422;2023-11-21T02:15:06;6.80;99.90
5711;DHT22;61291;52.524;13.422;2023-11-21T02:17:42;6.70;99.90
5711;DHT22;61291;52.524;13.422;2023-11-21T02:20:13;6.70;99.90
5711;DHT22;61291;52.524;13.422;2023-11-21T02:22:41;6.60;99.90
5711;DHT22;61291;52.524;13.422;2023-11-21T02:25:08;6.70;99.90
5711;DHT22;61291;52.524;13.422;2023-11-21T02:27:33;6.70;99.90
5711;DHT22;61291;52.524;13.422;2023-11-21T02:29:59;6.80;99.90
5711;DHT22;61291;52.524;13.422;2023-11-21T02:32:26;6.70;99.90
5711;DHT22;61291;52.524;13.422;2023-11-21T02:34:51;6.60;99.90
5711;DHT22;61291;52.524;13.422;2023-11-21T02:37:17;6.70;99.90
5711;DHT22;61291;52.524;13.422;2023-11-21T02:39:42;6.70;99.90
5711;DHT22;61291;52.524;13.422;2023-11-21T02:42:08;6.60;99.90
5711;DHT22;61291;52.524;13.422;2023-11-21T02:44:34;6.60;99.90
5711;DHT22;61291;52.524;13.422;2023-11-21T02:47:00;6.60;99.90
5711;DHT22;61291;52.524;13.422;2023-11-21T02:49:25;6.50;99.90
5711;DHT22;61291;52.524;13.422;2023-11-21T02:51:54;6.50;99.90
5711;DHT22;61291;52.524;13.422;2023-11-21T02:54:20;6.50;99.90
5711;DHT22;61291;52.524;13.422;2023-11-21T02:56:47;6.50;99.90
5711;DHT22;61291;52.524;13.422;2023-11-21T02:59:13;6.50;99.90
5711;DHT22;61291;52.524;13.422;2023-11-21T03:01:38;6.50;99.90
5711;DHT22;61291;52.524;13.422;2023-11-21T03:04:04;6.60;99.90
5711;DHT22;61291;52.524;13.422;2023-11-21T03:06:29;6.60;99.90
5711;DHT22;61291;52.524;13.422;2023-11-21T03:08:55;6.60;99.90
5711;DHT22;61291;52.524;13.422;2023-11-21T03:11:20;6.60;99.90
5711;DHT22;61291;52.524;13.422;2023-11-21T03:13:46;6.50;99.90
5711;DHT22;61291;52.524;13.422;2023-11-21T03:16:12;6.50;99.90
5711;DHT22;61291;52.524;13.422;2023-11-21T03:18:38;6.60;99.90
5711;DHT22;61291;52.524;13.422;2023-11-21T03:21:05;6.50;99.90
5711;DHT22;61291;52.524;13.422;2023-11-21T03:23:31;6.50;99.90
5711;DHT22;61291;52.524;13.422;2023-11-21T03:25:57;6.50;99.90
5711;DHT22;61291;52.524;13.422;2023-11-21T03:28:22;6.50;99.90
5711;DHT22;61291;52.524;13.422;2023-11-21T03:30:48;6.60;99.90
5711;DHT22;61291;52.524;13.422;2023-11-21T03:33:14;6.50;99.90
5711;DHT22;61291;52.524;13.422;2023-11-21T03:35:40;6.50;99.90
5711;DHT22;61291;52.524;13.422;2023-11-21T03:38:07;6.50;99.90
5711;DHT22;61291;52.524;13.422;2023-11-21T03:40:32;6.50;99.90
5711;DHT22;61291;52.524;13.422;2023-11-21T03:42:58;6.50;99.90
5711;DHT22;61291;52.524;13.422;2023-11-21T03:45:24;6.50;99.90
5711;DHT22;61291;52.524;13.422;2023-11-21T03:47:50;6.50;99.90
5711;DHT22;61291;52.524;13.422;2023-11-21T03:50:15;6.50;99.90
5711;DHT22;61291;52.524;13.422;2023-11-21T03:52:41;6.40;99.90
5711;DHT22;61291;52.524;13.422;2023-11-21T03:55:06;6.40;99.90
5711;DHT22;61291;52.524;13.422;2023-11-21T03:57:32;6.40;99.90
5711;DHT22;61291;52.524;13.422;2023-11-21T03:59:57;6.40;99.90
5711;DHT22;61291;52.524;13.422;2023-11-21T04:02:23;6.40;99.90
5711;DHT22;61291;52.524;13.422;2023-11-21T04:04:50;6.40;99.90
5711;DHT22;61291;52.524;13.422;2023-11-21T04:07:15;6.30;99.90
5711;DHT22;61291;52.524;13.422;2023-11-21T04:09:41;6.30;99.90
5711;DHT22;61291;52.524;13.422;2023-11-21T04:12:07;6.30;99.90
5711;DHT22;61291;52.524;13.422;2023-11-21T04:14:34;6.30;99.90
5711;DHT22;61291;52.524;13.422;2023-11-21T04:16:59;6.30;99.90
5711;DHT22;61291;52.524;13.422;2023-11-21T04:19:25;6.30;99.90
5711;DHT22;61291;52.524;13.422;2023-11-21T04:21:51;6.20;99.90
5711;DHT22;61291;52.524;13.422;2023-11-21T04:24:16;6.20;99.90
5711;DHT22;61291;52.524;13.422;2023-11-21T04:26:42;6.30;99.90
5711;DHT22;61291;52.524;13.422;2023-11-21T04:29:08;6.30;99.90
5711;DHT22;61291;52.524;13.422;2023-11-21T04:31:33;6.30;99.90
5711;DHT22;61291;52.524;13.422;2023-11-21T04:33:59;6.40;99.90
5711;DHT22;61291;52.524;13.422;2023-11-21T04:36:24;6.40;99.90
5711;DHT22;61291;52.524;13.422;2023-11-21T04:38:50;6.50;99.90
5711;DHT22;61291;52.524;13.422;2023-11-21T04:41:15;6.40;99.90
5711;DHT22;61291;52.524;13.422;2023-11-21T04:43:41;6.40;99.90
5711;DHT22;61291;52.524;13.422;2023-11-21T04:46:07;6.30;99.90
5711;DHT22;61291;52.524;13.422;2023-11-21T04:48:33;6.40;99.90
5711;DHT22;61291;52.524;13.422;2023-11-21T04:50:58;6.30;99.90
5711;DHT22;61291;52.524;13.422;2023-11-21T04:53:24;6.40;99.90
5711;DHT22;61291;52.524;13.422;2023-11-21T04:55:49;6.40;99.90
5711;DHT22;61291;52.524;13.422;2023-11-21T04:58:15;6.40;99.90
5711;DHT22;61291;52.524;13.422;2023-11-21T05:00:40;6.50;99.90
5711;DHT22;61291;52.524;13.422;2023-11-21T05:03:06;6.40;99.90
5711;DHT22;61291;52.524;13.422;2023-11-21T05:05:32;6.40;99.90
5711;DHT22;61291;52.524;13.422;2023-11-21T05:07:59;6.40;99.90
5711;DHT22;61291;52.524;13.422;2023-11-21T05:10:25;6.50;99.90
5711;DHT22;61291;52.524;13.422;2023-11-21T05:12:50;6.30;99.90
5711;DHT22;61291;52.524;13.422;2023-11-21T05:15:16;6.30;99.90
5711;DHT22;61291;52.524;13.422;2023-11-21T05:17:45;6.40;99.90
5711;DHT22;61291;52.524;13.422;2023-11-21T05:20:12;6.40;99.90
5711;DHT22;61291;52.524;13.422;2023-11-21T05:22:39;6.40;99.90
5711;DHT22;61291;52.524;13.422;2023-11-21T05:25:05;6.30;99.90
5711;DHT22;61291;52.524;13.422;2023-11-21T05:27:32;6.20;99.90
5711;DHT22;61291;52.524;13.422;2023-11-21T05:29:58;6.20;99.90
5711;DHT22;61291;52.524;13.422;2023-11-21T05:32:24;6.20;99.90
5711;DHT22;61291;52.524;13.422;2023-11-21T05:34:50;6.40;99.90
5711;DHT22;61291;52.524;13.422;2023-11-21T05:37:15;6.20;99.90
5711;DHT22;61291;52.524;13.422;2023-11-21T05:39:42;6.40;99.90
5711;DHT22;61291;52.524;13.422;2023-11-21T05:42:08;6.40;99.90
5711;DHT22;61291;52.524;13.422;2023-11-21T05:44:36;6.30;99.90
5711;DHT22;61291;52.524;13.422;2023-11-21T05:47:02;6.30;99.90
5711;DHT22;61291;52.524;13.422;2023-11-21T05:49:28;6.20;99.90
5711;DHT22;61291;52.524;13.422;2023-11-21T05:51:55;6.20;99.90
5711;DHT22;61291;52.524;13.422;2023-11-21T05:54:21;6.20;99.90
5711;DHT22;61291;52.524;13.422;2023-11-21T05:56:47;6.30;99.90
5711;DHT22;61291;52.524;13.422;2023-11-21T05:59:12;6.20;99.90
5711;DHT22;61291;52.524;13.422;2023-11-21T06:01:38;6.20;99.90
5711;DHT22;61291;52.524;13.422;2023-11-21T06:04:04;6.30;99.90
5711;DHT22;61291;52.524;13.422;2023-11-21T06:06:30;6.20;99.90
5711;DHT22;61291;52.524;13.422;2023-11-21T06:08:56;6.20;99.90
5711;DHT22;61291;52.524;13.422;2023-11-21T06:11:22;6.00;99.90
5711;DHT22;61291;52.524;13.422;2023-11-21T06:13:47;6.10;99.90
5711;DHT22;61291;52.524;13.422;2023-11-21T06:16:13;6.00;99.90
5711;DHT22;61291;52.524;13.422;2023-11-21T06:18:41;6.00;99.90
5711;DHT22;61291;52.524;13.422;2023-11-21T06:21:09;6.10;99.90
5711;DHT22;61291;52.524;13.422;2023-11-21T06:23:35;6.10;99.90
5711;DHT22;61291;52.524;13.422;2023-11-21T06:26:00;6.00;99.90
5711;DHT22;61291;52.524;13.422;2023-11-21T06:28:26;6.00;99.90
5711;DHT22;61291;52.524;13.422;2023-11-21T06:30:51;6.00;99.90
5711;DHT22;61291;52.524;13.422;2023-11-21T06:33:18;6.00;99.90
5711;DHT22;61291;52.524;13.422;2023-11-21T06:35:44;6.10;99.90
5711;DHT22;61291;52.524;13.422;2023-11-21T06:38:10;6.10;99.90
5711;DHT22;61291;52.524;13.422;2023-11-21T06:40:35;6.00;99.90
5711;DHT22;61291;52.524;13.422;2023-11-21T06:43:01;6.10;99.90
5711;DHT22;61291;52.524;13.422;2023-11-21T06:45:27;6.10;99.90
5711;DHT22;61291;52.524;13.422;2023-11-21T06:47:52;6.00;99.90
5711;DHT22;61291;52.524;13.422;2023-11-21T06:50:18;6.00;99.90
5711;DHT22;61291;52.524;13.422;2023-11-21T06:52:43;6.00;99.90
5711;DHT22;61291;52.524;13.422;2023-11-21T06:55:09;6.00;99.90
5711;DHT22;61291;52.524;13.422;2023-11-21T06:57:35;6.00;99.90
5711;DHT22;61291;52.524;13.422;2023-11-21T07:00:01;5.90;99.90
5711;DHT22;61291;52.524;13.422;2023-11-21T07:02:26;5.90;99.90
5711;DHT22;61291;52.524;13.422;2023-11-21T07:04:52;6.00;99.90
5711;DHT22;61291;52.524;13.422;2023-11-21T07:07:18;6.00;99.90
5711;DHT22;61291;52.524;13.422;2023-11-21T07:09:44;6.00;99.90
5711;DHT22;61291;52.524;13.422;2023-11-21T07:12:10;5.90;99.90
5711;DHT22;61291;52.524;13.422;2023-11-21T07:14:36;5.90;99.90
5711;DHT22;61291;52.524;13.422;2023-11-21T07:17:02;6.00;99.90
5711;DHT22;61291;52.524;13.422;2023-11-21T07:19:28;5.90;99.90
5711;DHT22;61291;52.524;13.422;2023-11-21T07:21:54;5.90;99.90
5711;DHT22;61291;52.524;13.422;2023-11-21T07:24:20;5.90;99.90
5711;DHT22;61291;52.524;13.422;2023-11-21T07:26:46;5.90;99.90
5711;DHT22;61291;52.524;13.422;2023-11-21T07:29:13;5.90;99.90
5711;DHT22;61291;52.524;13.422;2023-11-21T07:31:38;6.00;99.90
5711;DHT22;61291;52.524;13.422;2023-11-21T07:34:05;5.90;99.90
5711;DHT22;61291;52.524;13.422;2023-11-21T07:36:31;6.00;99.90
5711;DHT22;61291;52.524;13.422;2023-11-21T07:38:56;6.10;99.90
5711;DHT22;61291;52.524;13.422;2023-11-21T07:41:22;6.10;99.90
5711;DHT22;61291;52.524;13.422;2023-11-21T07:43:48;6.10;99.90
5711;DHT22;61291;52.524;13.422;2023-11-21T07:46:13;6.10;99.90
5711;DHT22;61291;52.524;13.422;2023-11-21T07:48:39;6.10;99.90
5711;DHT22;61291;52.524;13.422;2023-11-21T07:51:06;6.10;99.90
5711;DHT22;61291;52.524;13.422;2023-11-21T07:53:35;6.10;99.90
5711;DHT22;61291;52.524;13.422;2023-11-21T07:56:08;6.10;99.90
5711;DHT22;61291;52.524;13.422;2023-11-21T07:58:34;6.10;99.90
5711;DHT22;61291;52.524;13.422;2023-11-21T08:01:01;6.10;99.90
5711;DHT22;61291;52.524;13.422;2023-11-21T08:03:27;6.10;99.90
5711;DHT22;61291;52.524;13.422;2023-11-21T08:05:53;6.10;99.90
5711;DHT22;61291;52.524;13.422;2023-11-21T08:08:19;6.20;99.90
5711;DHT22;61291;52.524;13.422;2023-11-21T08:10:45;6.20;99.90
5711;DHT22;61291;52.524;13.422;2023-11-21T08:13:14;6.20;99.90
5711;DHT22;61291;52.524;13.422;2023-11-21T08:15:41;6.20;99.90
5711;DHT22;61291;52.524;13.422;2023-11-21T08:18:10;6.10;99.90
5711;DHT22;61291;52.524;13.422;2023-11-21T08:20:35;6.00;99.90
5711;DHT22;61291;52.524;13.422;2023-11-21T08:23:03;6.00;99.90
5711;DHT22;61291;52.524;13.422;2023-11-21T08:25:31;6.00;99.90
5711;DHT22;61291;52.524;13.422;2023-11-21T08:27:57;6.00;99.90
5711;DHT22;61291;52.524;13.422;2023-11-21T08:30:22;6.10;99.90
5711;DHT22;61291;52.524;13.422;2023-11-21T08:32:49;5.90;99.90
5711;DHT22;61291;52.524;13.422;2023-11-21T08:35:16;6.00;99.90
5711;DHT22;61291;52.524;13.422;2023-11-21T08:37:42;6.10;99.90
5711;DHT22;61291;52.524;13.422;2023-11-21T08:40:08;6.10;99.90
5711;DHT22;61291;52.524;13.422;2023-11-21T08:42:35;6.00;99.90
5711;DHT22;61291;52.524;13.422;2023-11-21T08:45:00;6.30;99.90
5711;DHT22;61291;52.524;13.422;2023-11-21T08:47:26;6.30;99.90
5711;DHT22;61291;52.524;13.422;2023-11-21T08:49:52;6.50;99.90
5711;DHT22;61291;52.524;13.422;2023-11-21T08:52:19;6.50;99.90
5711;DHT22;61291;52.524;13.422;2023-11-21T08:54:46;6.50;99.90
5711;DHT22;61291;52.524;13.422;2023-11-21T08:57:11;6.60;99.90
5711;DHT22;61291;52.524;13.422;2023-11-21T08:59:37;6.50;99.90
5711;DHT22;61291;52.524;13.422;2023-11-21T09:02:02;6.40;99.90
5711;DHT22;61291;52.524;13.422;2023-11-21T09:04:27;6.50;99.90
5711;DHT22;61291;52.524;13.422;2023-11-21T09:06:53;6.40;99.90
5711;DHT22;61291;52.524;13.422;2023-11-21T09:09:18;6.50;99.90
5711;DHT22;61291;52.524;13.422;2023-11-21T09:11:45;6.40;99.90
5711;DHT22;61291;52.524;13.422;2023-11-21T09:14:11;6.50;99.90
5711;DHT22;61291;52.524;13.422;2023-11-21T09:16:39;6.50;99.90
5711;DHT22;61291;52.524;13.422;2023-11-21T09:19:04;6.10;99.90
5711;DHT22;61291;52.524;13.422;2023-11-21T09:21:30;6.20;99.90
5711;DHT22;61291;52.524;13.422;2023-11-21T09:23:56;6.30;99.90
5711;DHT22;61291;52.524;13.422;2023-11-21T09:26:21;6.20;99.90
5711;DHT22;61291;52.524;13.422;2023-11-21T09:28:47;6.00;99.90
5711;DHT22;61291;52.524;13.422;2023-11-21T09:31:13;6.10;99.90
5711;DHT22;61291;52.524;13.422;2023-11-21T09:33:41;6.20;99.90
5711;DHT22;61291;52.524;13.422;2023-11-21T09:36:11;6.20;99.90
5711;DHT22;61291;52.524;13.422;2023-11-21T09:38:37;6.20;99.90
5711;DHT22;61291;52.524;13.422;2023-11-21T09:41:05;6.20;99.90
5711;DHT22;61291;52.524;13.422;2023-11-21T09:43:32;6.20;99.90
5711;DHT22;61291;52.524;13.422;2023-11-21T09:46:04;6.70;99.90
5711;DHT22;61291;52.524;13.422;2023-11-21T09:48:32;6.80;99.90
5711;DHT22;61291;52.524;13.422;2023-11-21T09:50:59;6.30;99.90
5711;DHT22;61291;52.524;13.422;2023-11-21T09:53:27;6.70;99.90
5711;DHT22;61291;52.524;13.422;2023-11-21T09:55:55;6.50;99.90
5711;DHT22;61291;52.524;13.422;2023-11-21T09:58:21;6.70;99.90
5711;DHT22;61291;52.524;13.422;2023-11-21T10:00:49;6.30;99.90
5711;DHT22;61291;52.524;13.422;2023-11-21T10:03:17;6.40;99.90
5711;DHT22;61291;52.524;13.422;2023-11-21T10:05:44;6.60;99.90
5711;DHT22;61291;52.524;13.422;2023-11-21T10:08:12;6.20;99.90
5711;DHT22;61291;52.524;13.422;2023-11-21T10:10:43;6.20;99.90
5711;DHT22;61291;52.524;13.422;2023-11-21T10:13:11;6.10;99.90
5711;DHT22;61291;52.524;13.422;2023-11-21T10:15:38;6.20;99.90
5711;DHT22;61291;52.524;13.422;2023-11-21T10:18:04;6.00;99.90
5711;DHT22;61291;52.524;13.422;2023-11-21T10:20:32;6.10;99.90
5711;DHT22;61291;52.524;13.422;2023-11-21T10:23:03;6.20;99.90
5711;DHT22;61291;52.524;13.422;2023-11-21T10:25:29;6.10;99.90
5711;DHT22;61291;52.524;13.422;2023-11-21T10:27:59;6.10;99.90
5711;DHT22;61291;52.524;13.422;2023-11-21T10:30:35;6.00;99.90
5711;DHT22;61291;52.524;13.422;2023-11-21T10:33:07;6.10;99.90
5711;DHT22;61291;52.524;13.422;2023-11-21T10:35:45;5.90;99.90
5711;DHT22;61291;52.524;13.422;2023-11-21T10:38:17;5.80;99.90
5711;DHT22;61291;52.524;13.422;2023-11-21T10:40:43;5.90;99.90
5711;DHT22;61291;52.524;13.422;2023-11-21T10:43:10;6.00;99.90
5711;DHT22;61291;52.524;13.422;2023-11-21T10:45:37;5.90;99.90
5711;DHT22;61291;52.524;13.422;2023-11-21T10:48:09;5.90;99.90
5711;DHT22;61291;52.524;13.422;2023-11-21T10:50:46;5.90;99.90
5711;DHT22;61291;52.524;13.422;2023-11-21T10:53:11;5.80;99.90
5711;DHT22;61291;52.524;13.422;2023-11-21T10:55:38;5.80;99.90
5711;DHT22;61291;52.524;13.422;2023-11-21T10:58:04;5.50;99.90
5711;DHT22;61291;52.524;13.422;2023-11-21T11:00:31;5.70;99.90
5711;DHT22;61291;52.524;13.422;2023-11-21T11:02:57;5.80;99.90
5711;DHT22;61291;52.524;13.422;2023-11-21T11:05:25;5.70;99.90
5711;DHT22;61291;52.524;13.422;2023-11-21T11:07:53;5.70;99.90
5711;DHT22;61291;52.524;13.422;2023-11-21T11:10:25;5.70;99.90
5711;DHT22;61291;52.524;13.422;2023-11-21T11:12:56;5.80;99.90
5711;DHT22;61291;52.524;13.422;2023-11-21T11:15:23;5.50;99.90
5711;DHT22;61291;52.524;13.422;2023-11-21T11:17:49;5.70;99.90
5711;DHT22;61291;52.524;13.422;2023-11-21T11:20:16;5.70;99.90
5711;DHT22;61291;52.524;13.422;2023-11-21T11:25:57;5.60;99.90
5711;DHT22;61291;52.524;13.422;2023-11-21T11:28:38;5.50;99.90
5711;DHT22;61291;52.524;13.422;2023-11-21T11:37:06;5.50;99.90
5711;DHT22;61291;52.524;13.422;2023-11-21T11:39:40;5.70;99.90
5711;DHT22;61291;52.524;13.422;2023-11-21T11:42:13;5.80;99.90
5711;DHT22;61291;52.524;13.422;2023-11-21T11:47:31;5.50;99.90
5711;DHT22;61291;52.524;13.422;2023-11-21T11:50:10;5.50;99.90
5711;DHT22;61291;52.524;13.422;2023-11-21T11:52:46;5.70;99.90
5711;DHT22;61291;52.524;13.422;2023-11-21T11:55:17;5.80;99.90
5711;DHT22;61291;52.524;13.422;2023-11-21T11:57:52;5.80;99.90
5711;DHT22;61291;52.524;13.422;2023-11-21T12:02:55;5.80;99.90
5711;DHT22;61291;52.524;13.422;2023-11-21T12:05:26;5.70;99.90
5711;DHT22;61291;52.524;13.422;2023-11-21T12:07:58;5.70;99.90
5711;DHT22;61291;52.524;13.422;2023-11-21T12:10:27;5.50;99.90
5711;DHT22;61291;52.524;13.422;2023-11-21T12:12:58;5.70;99.90
5711;DHT22;61291;52.524;13.422;2023-11-21T12:15:24;5.60;99.90
5711;DHT22;61291;52.524;13.422;2023-11-21T12:17:51;5.50;99.90
5711;DHT22;61291;52.524;13.422;2023-11-21T12:20:21;5.40;99.90
5711;DHT22;61291;52.524;13.422;2023-11-21T12:22:49;5.70;99.90
5711;DHT22;61291;52.524;13.422;2023-11-21T12:25:26;5.70;99.90
5711;DHT22;61291;52.524;13.422;2023-11-21T12:27:57;5.70;99.90
5711;DHT22;61291;52.524;13.422;2023-11-21T12:30:24;5.60;99.90
5711;DHT22;61291;52.524;13.422;2023-11-21T12:32:54;5.70;99.90
5711;DHT22;61291;52.524;13.422;2023-11-21T12:35:24;5.80;99.90
5711;DHT22;61291;52.524;13.422;2023-11-21T12:37:52;5.90;99.90
5711;DHT22;61291;52.524;13.422;2023-11-21T12:40:18;5.80;99.90
5711;DHT22;61291;52.524;13.422;2023-11-21T12:42:48;5.80;99.90
5711;DHT22;61291;52.524;13.422;2023-11-21T12:47:47;5.80;99.90
5711;DHT22;61291;52.524;13.422;2023-11-21T12:50:20;5.70;99.90
5711;DHT22;61291;52.524;13.422;2023-11-21T12:52:52;5.80;99.90
5711;DHT22;61291;52.524;13.422;2023-11-21T12:55:22;5.60;99.90
5711;DHT22;61291;52.524;13.422;2023-11-21T12:57:50;5.50;99.90
5711;DHT22;61291;52.524;13.422;2023-11-21T13:00:18;5.70;99.90
5711;DHT22;61291;52.524;13.422;2023-11-21T13:02:57;5.80;99.90
5711;DHT22;61291;52.524;13.422;2023-11-21T13:05:28;5.70;99.90
5711;DHT22;61291;52.524;13.422;2023-11-21T13:08:01;5.60;99.90
5711;DHT22;61291;52.524;13.422;2023-11-21T13:10:31;5.30;99.90
5711;DHT22;61291;52.524;13.422;2023-11-21T13:12:58;5.40;99.90
5711;DHT22;61291;52.524;13.422;2023-11-21T13:15:25;5.30;99.90
5711;DHT22;61291;52.524;13.422;2023-11-21T13:17:51;5.20;99.90
5711;DHT22;61291;52.524;13.422;2023-11-21T13:20:20;5.30;99.90
5711;DHT22;61291;52.524;13.422;2023-11-21T13:22:53;5.20;99.90
5711;DHT22;61291;52.524;13.422;2023-11-21T13:25:29;5.10;99.90
5711;DHT22;61291;52.524;13.422;2023-11-21T13:27:55;5.10;99.90
5711;DHT22;61291;52.524;13.422;2023-11-21T13:30:21;5.10;99.90
5711;DHT22;61291;52.524;13.422;2023-11-21T13:32:52;5.00;99.90
5711;DHT22;61291;52.524;13.422;2023-11-21T13:35:18;4.90;99.90
5711;DHT22;61291;52.524;13.422;2023-11-21T13:37:56;4.70;99.90
5711;DHT22;61291;52.524;13.422;2023-11-21T13:40:24;4.80;99.90
5711;DHT22;61291;52.524;13.422;2023-11-21T13:42:55;4.70;99.90
5711;DHT22;61291;52.524;13.422;2023-11-21T13:45:24;4.60;99.90
5711;DHT22;61291;52.524;13.422;2023-11-21T13:47:52;4.70;99.90
5711;DHT22;61291;52.524;13.422;2023-11-21T13:50:23;4.70;99.90
5711;DHT22;61291;52.524;13.422;2023-11-21T13:52:52;4.70;99.90
5711;DHT22;61291;52.524;13.422;2023-11-21T13:55:18;4.80;99.90
5711;DHT22;61291;52.524;13.422;2023-11-21T13:57:44;4.60;99.90
5711;DHT22;61291;52.524;13.422;2023-11-21T14:00:15;4.50;99.90
5711;DHT22;61291;52.524;13.422;2023-11-21T14:03:01;4.50;99.90
5711;DHT22;61291;52.524;13.422;2023-11-21T14:05:28;4.40;99.90
5711;DHT22;61291;52.524;13.422;2023-11-21T14:07:55;4.40;99.90
5711;DHT22;61291;52.524;13.422;2023-11-21T14:10:22;4.40;99.90
5711;DHT22;61291;52.524;13.422;2023-11-21T14:12:50;4.20;99.90
5711;DHT22;61291;52.524;13.422;2023-11-21T14:15:15;4.30;99.90
5711;DHT22;61291;52.524;13.422;2023-11-21T14:17:44;4.10;99.90
5711;DHT22;61291;52.524;13.422;2023-11-21T14:20:10;3.90;99.90
5711;DHT22;61291;52.524;13.422;2023-11-21T14:22:41;3.90;99.90
5711;DHT22;61291;52.524;13.422;2023-11-21T14:25:07;3.70;99.90
5711;DHT22;61291;52.524;13.422;2023-11-21T14:27:33;3.70;99.90
5711;DHT22;61291;52.524;13.422;2023-11-21T14:29:58;3.80;99.90
5711;DHT22;61291;52.524;13.422;2023-11-21T14:32:24;3.80;99.90
5711;DHT22;61291;52.524;13.422;2023-11-21T14:34:51;3.80;99.90
5711;DHT22;61291;52.524;13.422;2023-11-21T14:37:17;3.80;99.90
5711;DHT22;61291;52.524;13.422;2023-11-21T14:39:45;3.80;99.90
5711;DHT22;61291;52.524;13.422;2023-11-21T14:42:15;3.80;99.90
5711;DHT22;61291;52.524;13.422;2023-11-21T14:44:46;3.70;99.90
5711;DHT22;61291;52.524;13.422;2023-11-21T14:47:12;3.60;99.90
5711;DHT22;61291;52.524;13.422;2023-11-21T14:49:42;3.70;99.90
5711;DHT22;61291;52.524;13.422;2023-11-21T14:52:22;3.60;99.90
5711;DHT22;61291;52.524;13.422;2023-11-21T14:55:04;3.50;99.90
5711;DHT22;61291;52.524;13.422;2023-11-21T14:57:46;3.60;99.90
5711;DHT22;61291;52.524;13.422;2023-11-21T15:00:19;3.60;99.90
5711;DHT22;61291;52.524;13.422;2023-11-21T15:03:07;3.60;99.90
5711;DHT22;61291;52.524;13.422;2023-11-21T15:05:34;3.50;99.90
5711;DHT22;61291;52.524;13.422;2023-11-21T15:08:01;3.40;99.90
5711;DHT22;61291;52.524;13.422;2023-11-21T15:10:45;3.50;99.90
5711;DHT22;61291;52.524;13.422;2023-11-21T15:13:13;3.50;99.90
5711;DHT22;61291;52.524;13.422;2023-11-21T15:15:40;3.50;99.90
5711;DHT22;61291;52.524;13.422;2023-11-21T15:18:06;3.50;99.90
5711;DHT22;61291;52.524;13.422;2023-11-21T15:20:32;3.50;99.90
5711;DHT22;61291;52.524;13.422;2023-11-21T15:22:58;3.50;99.90
5711;DHT22;61291;52.524;13.422;2023-11-21T15:25:23;3.50;99.90
5711;DHT22;61291;52.524;13.422;2023-11-21T15:27:49;3.50;99.90
5711;DHT22;61291;52.524;13.422;2023-11-21T15:30:16;3.50;99.90
5711;DHT22;61291;52.524;13.422;2023-11-21T15:32:44;3.50;99.90
5711;DHT22;61291;52.524;13.422;2023-11-21T15:35:09;3.50;99.90
5711;DHT22;61291;52.524;13.422;2023-11-21T15:37:38;3.50;99.90
5711;DHT22;61291;52.524;13.422;2023-11-21T15:40:04;3.50;99.90
5711;DHT22;61291;52.524;13.422;2023-11-21T15:42:31;3.50;99.90
5711;DHT22;61291;52.524;13.422;2023-11-21T15:44:57;3.50;99.90
5711;DHT22;61291;52.524;13.422;2023-11-21T15:47:22;3.50;99.90
5711;DHT22;61291;52.524;13.422;2023-11-21T15:49:48;3.50;99.90
5711;DHT22;61291;52.524;13.422;2023-11-21T15:52:13;3.60;99.90
5711;DHT22;61291;52.524;13.422;2023-11-21T15:54:40;3.60;99.90
5711;DHT22;61291;52.524;13.422;2023-11-21T15:57:06;3.50;99.90
5711;DHT22;61291;52.524;13.422;2023-11-21T15:59:33;3.50;99.90
5711;DHT22;61291;52.524;13.422;2023-11-21T16:01:59;3.50;99.90